Aeroporto :
LOGIN :

Iscrizione | Disclaimer

   EN    FR    IT 

 










Sommario :    VFR   VFR Marginale   IFR   IFR Intensivo   IFR Molto Intensivo
Visibilità : 
Base nubi : 
>= 8 km
>= 3000ft
5 / 8 km
1000 / 3000 ft
1500m / 5 km
500 / 1000 ft
800 / 1500m
200 / 500 ft
< 800m
< 200 ft
Simboli :   Temporali  Nebbia  Neve Forte  Precipitazioni Forti  Vento > 20 kt
SIGMETs :   Varie  Temporali  Ghiacco  Turbolenza  Onda orograficha  Ceneri Vulcaniche






- Altitudine del aeroporto : 697 ft
- Codice IATA : PEG


LIRZ - San Edigio Perugia

ULTIMO METAR :
  • 240820Z AUTO VRB02KT 9999 BKN015/// BKN080/// 09/05 Q1007

METARs OBSOLETI :
  • 240750Z AUTO VRB01KT 9999 FEW014/// SCT026/// BKN045/// 09/05 Q1006
  • 240720Z AUTO 27003KT 9999 OVC021/// 08/06 Q1007
  • 240650Z AUTO 21004KT 170V240 9999 BKN028/// 08/06 Q1006
  • 240620Z AUTO VRB01KT 9999 BKN027/// 07/06 Q1006
  • 240550Z AUTO VRB01KT 9999 BKN025/// 07/06 Q1006
  • 240520Z AUTO VRB02KT 9999 -RA BKN027/// 06/06 Q1006
  • 240450Z AUTO 33004KT 9999 -RA OVC027/// 06/06 Q1006
  • 240420Z AUTO VRB01KT 9999 -RA FEW025/// BKN033/// 07/06 Q1006
  • 240350Z AUTO 14002KT 9999 -DZRA FEW029/// BKN058/// 06/06 Q1006

TAF TAF LIRZ
Valido dal 24 a 06 ore il 25 a 06 ore UTC


240500Z 2406/2506 20007KT 9999 BKN040
TEMPO 2406/2414 4000 TSRA



MetMap, La meteo Aeronautica in un colpo d'occhio ! - Copyright ORBIFLY Dicembre 2007 - Disclaimer

ORBIFLY MET'MAP TEAM :

Programmazione e sviluppo : Alexandra Zaïnal
Concezione : Baudouin d'Aumeries
Supporto tecnico e logistico : Manuel Goepfert
Aiuto : Marc-Olivier Méhu
Aiuto per la traduzione : Arnaldo La Scala




FONTI E CREDITI :

   NOAA